Time;durP1;ratioP1;P1;durP2;ratioP2;P2;SDS_P1;SDS_P2;PMS_P1;PMS_P2;Temp;Humidity;BMP_temperature;BMP_pressure;BME280_temperature;BME280_humidity;BME280_pressure;Samples;Min_cycle;Max_cycle;Signal;HPM_P1;HPM_P2
2023/09/25 00:00:45;;;;;;;12.07;10.88;;;;;;;20.98;76.61;92936.50;5049001;28;20182;-75
2023/09/25 00:03:11;;;;;;;11.93;10.73;;;;;;;20.93;75.56;92932.16;5042505;28;20269;-76
2023/09/25 00:05:37;;;;;;;17.38;11.13;;;;;;;20.88;76.73;92943.00;5049179;28;20175;-76
2023/09/25 00:08:03;;;;;;;12.63;11.50;;;;;;;20.79;77.21;92936.25;5043064;28;20227;-77
2023/09/25 00:10:31;;;;;;;13.57;11.07;;;;;;;20.80;76.67;92935.94;5057183;28;20188;-76
2023/09/25 00:12:57;;;;;;;11.43;10.35;;;;;;;20.89;75.67;92935.81;5036644;28;20284;-76
2023/09/25 00:15:23;;;;;;;13.55;11.00;;;;;;;20.82;75.59;92924.97;5049865;28;20259;-76
2023/09/25 00:17:49;;;;;;;17.58;11.25;;;;;;;21.01;74.70;92949.13;5048595;28;20205;-77
2023/09/25 00:20:15;;;;;;;13.23;11.98;;;;;;;20.97;75.12;92950.88;5048233;28;20180;-78
2023/09/25 00:22:40;;;;;;;13.88;11.15;;;;;;;21.03;75.21;92949.56;5038167;28;20189;-77
2023/09/25 00:25:07;;;;;;;12.27;10.90;;;;;;;20.77;76.13;92933.94;5048396;28;20199;-77
2023/09/25 00:27:33;;;;;;;13.10;11.63;;;;;;;20.94;75.69;92949.63;5055171;28;20195;-76
2023/09/25 00:30:00;;;;;;;12.20;10.00;;;;;;;20.85;76.14;92941.03;5050076;28;20221;-77
2023/09/25 00:32:25;;;;;;;12.48;11.05;;;;;;;20.98;74.59;92939.16;5042286;28;20201;-77
2023/09/25 00:34:51;;;;;;;10.98;10.18;;;;;;;20.84;75.48;92942.09;5048814;28;20217;-76
2023/09/25 00:37:16;;;;;;;12.60;11.40;;;;;;;20.73;76.34;92943.69;5054533;28;20228;-76
2023/09/25 00:39:42;;;;;;;13.23;11.20;;;;;;;20.86;75.47;92936.50;5046931;28;20233;-76
2023/09/25 00:42:08;;;;;;;11.13;10.25;;;;;;;20.69;75.53;92930.31;5051432;28;20747;-77
2023/09/25 00:44:33;;;;;;;15.90;10.70;;;;;;;20.86;75.09;92941.81;5048179;28;20223;-77
2023/09/25 00:46:59;;;;;;;12.48;10.68;;;;;;;20.99;74.29;92946.00;5057786;28;20182;-76
2023/09/25 00:49:26;;;;;;;12.18;10.13;;;;;;;20.77;75.78;92946.44;5042942;28;20229;-77
2023/09/25 00:51:52;;;;;;;16.17;11.13;;;;;;;20.87;75.66;92954.75;5054332;28;20236;-77
2023/09/25 00:54:18;;;;;;;13.85;10.38;;;;;;;20.80;76.49;92951.84;5050140;28;20296;-76
2023/09/25 00:56:46;;;;;;;17.55;11.00;;;;;;;20.62;75.73;92942.59;5051635;28;20188;-76
2023/09/25 00:59:12;;;;;;;11.50;10.25;;;;;;;20.77;75.55;92943.78;5043146;28;20229;-76
2023/09/25 01:01:37;;;;;;;12.90;10.43;;;;;;;20.79;75.73;92952.19;5052744;28;20217;-77
2023/09/25 01:04:03;;;;;;;15.35;10.70;;;;;;;20.56;76.59;92939.34;5056980;28;20297;-76
2023/09/25 01:06:29;;;;;;;15.98;11.02;;;;;;;20.60;76.92;92950.88;5065049;28;20185;-76
2023/09/25 01:08:54;;;;;;;13.63;10.50;;;;;;;20.56;76.44;92942.00;5057182;28;20228;-80
2023/09/25 01:11:20;;;;;;;11.80;10.77;;;;;;;20.46;77.90;92955.72;5043681;28;20281;-76
2023/09/25 01:13:45;;;;;;;13.90;10.82;;;;;;;20.47;77.34;92951.19;5057429;28;20229;-77
2023/09/25 01:16:10;;;;;;;13.35;10.82;;;;;;;20.30;77.72;92946.84;5059707;28;20191;-77
2023/09/25 01:18:36;;;;;;;11.63;10.60;;;;;;;20.25;76.89;92941.75;5052498;28;20228;-76
2023/09/25 01:21:03;;;;;;;10.52;9.52;;;;;;;20.30;76.28;92956.69;5047941;28;20185;-76
2023/09/25 01:23:28;;;;;;;15.68;10.85;;;;;;;20.34;76.17;92955.69;5050879;28;20305;-76
2023/09/25 01:25:54;;;;;;;15.18;10.90;;;;;;;20.40;75.82;92967.66;5052340;28;20188;-76
2023/09/25 01:28:19;;;;;;;18.55;10.90;;;;;;;20.37;76.18;92962.97;5051929;28;20315;-76
2023/09/25 01:30:45;;;;;;;15.40;11.30;;;;;;;20.30;76.30;92957.47;5052618;28;20189;-76
2023/09/25 01:33:10;;;;;;;11.35;10.35;;;;;;;20.20;76.38;92970.38;5053556;28;20536;-77
2023/09/25 01:35:35;;;;;;;17.13;11.73;;;;;;;20.12;77.15;92972.00;5051976;28;20251;-76
2023/09/25 01:38:03;;;;;;;15.68;11.10;;;;;;;20.05;76.84;92963.78;5051447;28;20231;-76
2023/09/25 01:40:30;;;;;;;12.98;9.55;;;;;;;20.03;76.94;92971.28;5051361;28;20182;-75
2023/09/25 01:42:56;;;;;;;17.47;10.97;;;;;;;20.10;76.88;92974.19;5039118;28;20272;-76
2023/09/25 01:45:21;;;;;;;15.20;10.60;;;;;;;20.08;77.00;92984.34;5048647;28;20207;-77
2023/09/25 01:47:52;;;;;;;11.55;10.70;;;;;;;20.09;76.96;92977.94;5051952;28;20193;-76
2023/09/25 01:50:18;;;;;;;10.90;9.80;;;;;;;19.91;77.47;92976.56;5052046;28;20228;-77
2023/09/25 01:52:47;;;;;;;14.00;11.70;;;;;;;19.86;77.61;92978.66;5047554;28;20192;-76
2023/09/25 01:55:12;;;;;;;12.80;9.97;;;;;;;19.95;76.10;92961.56;5060481;28;20197;-76
2023/09/25 01:57:37;;;;;;;12.83;10.57;;;;;;;19.83;77.47;92980.06;5040618;28;20210;-76
2023/09/25 02:00:09;;;;;;;11.77;10.73;;;;;;;19.94;75.63;92981.19;5051502;28;20224;-76
2023/09/25 02:02:34;;;;;;;15.80;10.97;;;;;;;19.79;77.02;92984.47;5050680;28;20219;-77
2023/09/25 02:05:00;;;;;;;11.60;10.03;;;;;;;19.77;74.67;92997.25;5049530;28;20186;-76
2023/09/25 02:07:25;;;;;;;10.77;9.93;;;;;;;19.80;74.94;92986.00;5049511;28;20195;-76
2023/09/25 02:09:51;;;;;;;13.77;10.30;;;;;;;19.82;74.50;92985.69;5048958;28;20307;-77
2023/09/25 02:12:16;;;;;;;13.63;9.97;;;;;;;19.77;73.46;92997.25;5049672;28;20200;-76
2023/09/25 02:14:42;;;;;;;10.75;9.80;;;;;;;19.65;72.25;92991.91;5049424;28;20221;-75
2023/09/25 02:17:07;;;;;;;11.40;10.17;;;;;;;19.83;71.95;92995.94;5050747;28;20200;-76
2023/09/25 02:19:33;;;;;;;11.53;10.27;;;;;;;19.87;71.32;92999.53;5045037;28;20279;-77
2023/09/25 02:21:58;;;;;;;10.85;9.75;;;;;;;19.90;71.51;92990.91;5048827;28;20212;-76
2023/09/25 02:24:23;;;;;;;10.77;9.70;;;;;;;19.86;72.63;93005.16;5041884;28;21700;-76
2023/09/25 02:26:49;;;;;;;13.03;10.17;;;;;;;19.89;72.96;92999.19;5051615;28;20200;-76
2023/09/25 02:29:14;;;;;;;11.23;10.10;;;;;;;19.86;73.13;92995.31;5051207;28;20230;-76
2023/09/25 02:31:39;;;;;;;13.57;11.57;;;;;;;19.67;73.68;92987.06;5051848;28;20197;-76
2023/09/25 02:34:06;;;;;;;10.17;9.17;;;;;;;19.70;73.93;92990.94;5039780;28;20225;-76
2023/09/25 02:36:33;;;;;;;11.43;10.43;;;;;;;19.77;73.19;93002.56;5053292;28;20269;-76
2023/09/25 02:38:59;;;;;;;10.52;9.73;;;;;;;19.82;72.91;93004.22;5033281;28;20268;-77
2023/09/25 02:41:25;;;;;;;11.82;9.40;;;;;;;19.76;72.95;92994.94;5048872;28;20181;-76
2023/09/25 02:43:50;;;;;;;10.95;9.88;;;;;;;19.73;72.03;93001.66;5036655;28;20230;-77
2023/09/25 02:46:15;;;;;;;18.97;10.90;;;;;;;19.65;72.46;92999.84;5051280;28;20198;-77
2023/09/25 02:48:41;;;;;;;14.67;11.97;;;;;;;19.67;73.45;93007.47;5050302;28;20287;-76
2023/09/25 02:51:06;;;;;;;12.57;10.53;;;;;;;19.71;73.28;93013.66;5057602;28;20192;-77
2023/09/25 02:53:31;;;;;;;13.33;11.67;;;;;;;19.77;72.67;93013.16;5058462;28;20213;-76
2023/09/25 02:55:57;;;;;;;14.93;10.73;;;;;;;19.68;73.92;93004.50;5051471;28;20216;-77
2023/09/25 02:58:22;;;;;;;13.07;10.60;;;;;;;19.80;73.39;93014.41;5054658;28;20225;-76
2023/09/25 03:00:49;;;;;;;12.77;11.47;;;;;;;19.66;73.83;93017.28;5049906;28;20181;-76
2023/09/25 03:03:14;;;;;;;10.67;9.77;;;;;;;19.75;74.35;93017.25;5054494;28;20224;-76
2023/09/25 03:05:39;;;;;;;12.93;11.30;;;;;;;19.67;74.73;93012.78;5057066;28;20206;-76
2023/09/25 03:08:05;;;;;;;12.90;11.23;;;;;;;19.54;75.37;93001.34;5057214;28;20211;-76
2023/09/25 03:10:30;;;;;;;12.30;11.27;;;;;;;19.58;75.44;93020.03;5049732;28;20181;-76
2023/09/25 03:12:56;;;;;;;12.43;11.32;;;;;;;19.48;75.81;93023.84;5045930;28;20239;-76
2023/09/25 03:15:21;;;;;;;12.97;11.67;;;;;;;19.54;75.23;93019.09;5049832;28;20197;-76
2023/09/25 03:17:46;;;;;;;12.50;11.48;;;;;;;19.61;75.01;93027.31;5048852;28;20275;-75
2023/09/25 03:20:15;;;;;;;14.37;12.77;;;;;;;19.65;74.14;93031.66;5040947;28;20231;-76
2023/09/25 03:22:45;;;;;;;13.20;12.10;;;;;;;19.62;74.51;93034.94;5049421;28;20315;-75
2023/09/25 03:25:12;;;;;;;16.05;12.55;;;;;;;19.60;74.74;93025.75;5047262;28;20187;-76
2023/09/25 03:27:37;;;;;;;13.85;12.32;;;;;;;19.52;76.36;93037.22;5058964;28;20180;-74
2023/09/25 03:30:05;;;;;;;16.07;13.30;;;;;;;19.46;77.12;93023.38;5047738;28;20201;-79
2023/09/25 03:32:30;;;;;;;14.20;12.77;;;;;;;19.33;77.76;93028.91;5045567;28;20182;-73
2023/09/25 03:34:56;;;;;;;13.87;12.47;;;;;;;19.38;77.47;93028.75;5043762;28;20284;-78
2023/09/25 03:37:21;;;;;;;15.33;13.07;;;;;;;19.43;77.71;93034.59;5045681;28;20240;-77
2023/09/25 03:39:46;;;;;;;18.50;14.97;;;;;;;19.46;78.17;93018.06;5050299;28;20288;-72
2023/09/25 03:42:12;;;;;;;22.67;15.07;;;;;;;19.25;79.66;93011.19;5043954;28;20192;-73
2023/09/25 03:44:37;;;;;;;20.90;16.17;;;;;;;19.38;79.03;93020.78;5038684;28;20216;-78
2023/09/25 03:47:02;;;;;;;16.30;14.80;;;;;;;19.43;79.01;93031.97;5034610;28;20190;-77
2023/09/25 03:49:28;;;;;;;17.27;14.80;;;;;;;19.42;79.23;93027.78;5043458;28;20387;-81
2023/09/25 03:51:53;;;;;;;17.23;15.37;;;;;;;19.71;77.75;93027.69;5043385;28;20185;-78
2023/09/25 03:54:18;;;;;;;18.00;16.23;;;;;;;19.50;79.78;93029.59;5044697;28;20229;-77
2023/09/25 03:56:44;;;;;;;27.37;17.77;;;;;;;19.52;80.06;93027.38;5047401;28;20223;-76
2023/09/25 03:59:11;;;;;;;20.93;16.40;;;;;;;19.62;80.37;93021.69;5042384;28;20259;-76
2023/09/25 04:01:37;;;;;;;23.00;17.90;;;;;;;19.57;80.81;93032.47;5057613;28;20179;-72
2023/09/25 04:04:02;;;;;;;23.23;18.80;;;;;;;19.59;80.90;93032.94;5041139;28;20232;-75
2023/09/25 04:06:28;;;;;;;24.27;19.40;;;;;;;19.35;82.44;93032.78;5056612;28;20192;-79
2023/09/25 04:08:53;;;;;;;22.73;19.17;;;;;;;19.23;83.89;93030.03;5041687;28;20243;-75
2023/09/25 04:11:18;;;;;;;21.80;19.47;;;;;;;19.07;84.20;93021.09;5046077;28;20204;-80
2023/09/25 04:13:44;;;;;;;22.97;20.30;;;;;;;19.15;84.16;93038.81;5046120;28;20244;-76
2023/09/25 04:16:12;;;;;;;27.40;20.57;;;;;;;19.17;84.04;93037.38;5041615;28;20188;-76
2023/09/25 04:18:38;;;;;;;26.53;21.77;;;;;;;19.17;84.76;93039.25;5047538;28;20232;-74
2023/09/25 04:21:06;;;;;;;23.67;19.87;;;;;;;19.13;84.80;93039.13;5040403;28;20192;-74
2023/09/25 04:23:31;;;;;;;23.07;19.00;;;;;;;19.10;85.43;93045.06;5041956;28;20215;-73
2023/09/25 04:26:00;;;;;;;22.95;20.20;;;;;;;19.07;86.49;93052.84;5043974;28;20207;-77
2023/09/25 04:28:29;;;;;;;22.83;20.43;;;;;;;19.13;86.33;93059.50;5040721;28;20229;-75
2023/09/25 04:30:57;;;;;;;24.33;21.53;;;;;;;19.07;86.90;93052.84;5048016;28;20189;-74
2023/09/25 04:33:23;;;;;;;30.33;20.90;;;;;;;19.15;86.70;93054.69;5040915;28;20216;-74
2023/09/25 04:35:48;;;;;;;28.40;19.87;;;;;;;19.07;88.21;93058.94;5048458;28;20193;-75
2023/09/25 04:38:13;;;;;;;30.57;21.90;;;;;;;18.98;88.88;93060.06;5037437;28;20241;-74
2023/09/25 04:40:42;;;;;;;34.03;22.00;;;;;;;18.90;89.46;93042.34;5046960;28;20455;-74
2023/09/25 04:43:09;;;;;;;23.73;20.13;;;;;;;18.74;91.35;93057.22;5034401;28;20264;-75
2023/09/25 04:45:34;;;;;;;29.63;21.80;;;;;;;18.78;91.36;93064.22;5040867;28;20192;-74
2023/09/25 04:48:00;;;;;;;24.37;20.10;;;;;;;18.82;91.39;93051.88;5038047;28;20225;-74
2023/09/25 04:50:25;;;;;;;27.43;21.93;;;;;;;18.85;91.96;93061.03;5046112;28;20279;-79
2023/09/25 04:52:50;;;;;;;30.03;21.77;;;;;;;18.82;91.98;93062.47;5046821;28;20234;-74
2023/09/25 04:55:16;;;;;;;30.23;21.70;;;;;;;18.95;91.82;93055.41;5042107;28;20180;-75
2023/09/25 04:57:43;;;;;;;25.53;22.40;;;;;;;18.97;91.58;93059.28;5040636;28;20210;-73
2023/09/25 05:00:44;;;;;;;29.57;22.27;;;;;;;18.89;92.47;93060.13;5046189;28;20223;-75
2023/09/25 05:03:02;;;;;;;30.07;22.03;;;;;;;19.02;92.16;93050.38;5036008;28;20233;-75
2023/09/25 05:05:28;;;;;;;28.87;22.30;;;;;;;18.93;93.55;93062.88;5044928;28;20343;-75
2023/09/25 05:07:55;;;;;;;28.87;23.07;;;;;;;18.94;93.99;93051.97;5043784;28;20294;-74
2023/09/25 05:10:25;;;;;;;29.67;22.87;;;;;;;18.86;94.63;93052.03;5038441;28;20195;-74
2023/09/25 05:12:52;;;;;;;30.80;23.67;;;;;;;19.00;94.32;93060.53;5040996;28;20235;-75
2023/09/25 05:15:18;;;;;;;32.97;24.13;;;;;;;19.02;93.90;93060.97;5045408;28;20189;-74
2023/09/25 05:17:44;;;;;;;37.63;22.40;;;;;;;19.08;93.36;93051.78;5046933;28;20209;-74
2023/09/25 05:20:15;;;;;;;31.13;22.43;;;;;;;19.09;92.79;93050.66;5048087;28;20278;-75
2023/09/25 05:22:44;;;;;;;30.23;24.53;;;;;;;19.13;92.59;93057.66;5044761;28;20855;-74
2023/09/25 05:25:11;;;;;;;33.73;21.87;;;;;;;19.27;91.58;93067.25;5040586;28;20187;-74
2023/09/25 05:27:37;;;;;;;28.30;22.33;;;;;;;19.38;91.40;93066.56;5036266;28;20249;-75
2023/09/25 05:30:10;;;;;;;31.37;23.30;;;;;;;19.41;91.15;93071.22;5044725;28;20234;-75
2023/09/25 05:32:41;;;;;;;33.97;24.77;;;;;;;19.52;90.38;93080.34;5030551;28;20189;-75
2023/09/25 05:35:07;;;;;;;32.03;23.07;;;;;;;19.55;90.37;93078.94;5035407;28;20188;-74
2023/09/25 05:37:33;;;;;;;26.20;21.60;;;;;;;19.73;90.04;93088.31;5045655;28;20221;-74
2023/09/25 05:39:59;;;;;;;30.60;23.30;;;;;;;19.69;90.60;93096.13;5037867;28;20196;-75
2023/09/25 05:42:25;;;;;;;28.57;22.43;;;;;;;19.70;90.51;93095.03;5045527;28;20243;-75
2023/09/25 05:44:50;;;;;;;33.43;23.50;;;;;;;19.72;91.01;93094.72;5035857;28;20485;-75
2023/09/25 05:47:16;;;;;;;29.87;22.97;;;;;;;19.78;91.10;93114.63;5033932;28;20192;-75
2023/09/25 05:49:42;;;;;;;30.37;23.07;;;;;;;19.99;90.28;93115.41;5044838;28;20240;-75
2023/09/25 05:52:07;;;;;;;27.83;23.40;;;;;;;19.88;90.85;93109.72;5033355;28;20217;-74
2023/09/25 05:54:33;;;;;;;27.77;22.67;;;;;;;19.94;90.36;93118.25;5036784;28;20225;-75
2023/09/25 05:56:58;;;;;;;31.23;23.83;;;;;;;19.72;91.43;93110.63;5050686;28;20267;-75
2023/09/25 05:59:24;;;;;;;30.60;22.43;;;;;;;19.91;90.82;93122.31;5042994;28;20224;-74
2023/09/25 06:01:49;;;;;;;28.13;23.47;;;;;;;19.90;90.71;93128.72;5041305;28;20956;-75
2023/09/25 06:04:16;;;;;;;31.87;23.13;;;;;;;19.91;91.38;93127.63;5044964;28;20303;-75
2023/09/25 06:06:42;;;;;;;31.20;24.17;;;;;;;20.11;89.78;93128.75;5040873;28;20416;-75
2023/09/25 06:09:09;;;;;;;32.50;24.27;;;;;;;20.19;89.79;93120.72;5047482;28;20252;-74
2023/09/25 06:11:38;;;;;;;25.05;22.35;;;;;;;20.33;89.23;93131.06;5047756;28;20272;-75
2023/09/25 06:14:04;;;;;;;32.43;23.47;;;;;;;20.41;87.95;93114.31;5038563;28;20227;-75
2023/09/25 06:16:29;;;;;;;32.37;24.70;;;;;;;20.66;87.20;93137.94;5047707;28;20223;-75
2023/09/25 06:18:54;;;;;;;32.58;23.85;;;;;;;20.62;87.48;93134.38;5040808;28;20235;-75
2023/09/25 06:21:20;;;;;;;32.90;22.65;;;;;;;20.50;87.67;93128.25;5041053;28;20211;-75
2023/09/25 06:23:47;;;;;;;31.65;23.65;;;;;;;20.63;87.72;93141.25;5042187;28;20221;-75
2023/09/25 06:26:12;;;;;;;26.97;22.50;;;;;;;20.65;87.22;93133.72;5046142;28;20186;-76
2023/09/25 06:28:38;;;;;;;31.02;23.85;;;;;;;20.77;86.18;93150.78;5046409;28;20220;-75
2023/09/25 06:31:03;;;;;;;33.53;24.67;;;;;;;20.88;86.33;93152.72;5044654;28;20194;-75
2023/09/25 06:33:29;;;;;;;27.63;23.23;;;;;;;20.85;85.75;93164.00;5046737;28;20249;-75
2023/09/25 06:35:55;;;;;;;26.53;21.20;;;;;;;20.90;85.69;93160.34;5045237;28;20195;-75
2023/09/25 06:38:21;;;;;;;30.73;20.33;;;;;;;21.03;85.14;93167.28;5046833;28;20229;-75
2023/09/25 06:40:46;;;;;;;23.95;19.13;;;;;;;21.15;84.46;93170.72;5049193;28;20190;-75
2023/09/25 06:43:12;;;;;;;24.17;20.30;;;;;;;21.03;85.12;93173.34;5039390;28;20246;-75
2023/09/25 06:45:41;;;;;;;23.63;20.35;;;;;;;20.93;84.90;93172.97;5044951;28;20255;-75
2023/09/25 06:48:07;;;;;;;25.07;20.13;;;;;;;21.07;84.69;93168.16;5045407;28;20317;-75
2023/09/25 06:50:32;;;;;;;24.60;20.40;;;;;;;21.03;84.66;93181.31;5051289;28;20181;-75
2023/09/25 06:52:58;;;;;;;25.63;20.20;;;;;;;21.05;86.58;93173.78;5043878;28;20233;-75
2023/09/25 06:55:24;;;;;;;28.83;20.30;;;;;;;21.55;82.73;93173.53;5049522;28;20181;-75
2023/09/25 06:57:49;;;;;;;30.60;22.55;;;;;;;21.83;80.16;93171.78;5048866;28;20285;-75
2023/09/25 07:00:16;;;;;;;27.00;22.50;;;;;;;21.97;79.08;93180.19;5043795;28;20252;-75
2023/09/25 07:02:42;;;;;;;26.20;20.80;;;;;;;21.95;77.87;93174.41;5042005;28;20186;-75
2023/09/25 07:05:09;;;;;;;25.92;20.40;;;;;;;22.02;77.42;93182.63;5047903;28;20200;-75
2023/09/25 07:07:36;;;;;;;25.50;21.00;;;;;;;21.87;78.33;93177.97;5047746;28;20189;-75
2023/09/25 07:10:03;;;;;;;31.08;21.75;;;;;;;21.71;79.76;93175.19;5050265;28;20180;-75
2023/09/25 07:12:30;;;;;;;22.83;20.35;;;;;;;22.07;76.07;93174.44;5038258;28;20187;-75
2023/09/25 07:14:56;;;;;;;23.45;19.98;;;;;;;22.11;75.36;93176.06;5039641;28;20212;-75
2023/09/25 07:17:24;;;;;;;24.33;19.45;;;;;;;22.32;73.07;93178.56;5044200;28;20190;-75
2023/09/25 07:19:53;;;;;;;25.17;19.50;;;;;;;22.17;73.32;93176.59;5031532;28;20228;-75
2023/09/25 07:22:22;;;;;;;22.27;18.40;;;;;;;22.20;71.45;93173.28;5039447;28;20197;-75
2023/09/25 07:24:48;;;;;;;24.55;19.73;;;;;;;22.41;72.67;93179.22;5041623;28;20245;-78
2023/09/25 07:27:14;;;;;;;25.05;19.38;;;;;;;22.56;71.61;93188.41;5034362;28;20218;-77
2023/09/25 07:29:46;;;;;;;20.58;18.40;;;;;;;22.73;71.11;93183.56;5044378;28;20295;-76
2023/09/25 07:32:12;;;;;;;24.75;19.33;;;;;;;22.64;70.86;93180.28;5032011;28;20287;-79
2023/09/25 07:34:39;;;;;;;22.45;18.40;;;;;;;22.51;70.92;93176.09;5030096;28;20265;-83
2023/09/25 07:37:05;;;;;;;22.13;18.67;;;;;;;22.43;72.06;93184.22;5040141;28;20232;-78
2023/09/25 07:39:40;;;;;;;20.05;17.60;;;;;;;22.46;71.16;93183.53;5040167;28;20243;-79
2023/09/25 07:42:08;;;;;;;20.27;18.25;;;;;;;22.33;70.54;93182.78;5047854;28;20196;-77
2023/09/25 07:44:34;;;;;;;23.00;18.77;;;;;;;22.33;70.08;93185.44;5029024;28;20227;-78
2023/09/25 07:47:06;;;;;;;18.60;16.75;;;;;;;22.09;69.70;93183.59;5044120;28;20184;-77
2023/09/25 07:49:38;;;;;;;18.77;16.83;;;;;;;21.98;69.41;93193.16;5042755;28;20230;-79
2023/09/25 07:52:10;;;;;;;18.08;16.15;;;;;;;21.99;68.12;93196.59;5042253;28;20195;-80
2023/09/25 07:54:37;;;;;;;18.77;16.38;;;;;;;22.02;69.26;93206.56;5045497;28;20212;-78
2023/09/25 07:57:02;;;;;;;18.13;16.27;;;;;;;22.13;69.61;93212.97;5043834;28;20222;-75
2023/09/25 07:59:27;;;;;;;18.30;16.40;;;;;;;22.14;69.76;93209.19;5035491;28;20220;-75
2023/09/25 08:01:55;;;;;;;18.88;16.98;;;;;;;22.09;70.40;93201.44;5043405;28;20184;-78
2023/09/25 08:04:20;;;;;;;18.88;16.85;;;;;;;21.97;70.83;93204.13;5032648;28;20235;-76
2023/09/25 08:06:49;;;;;;;21.40;17.50;;;;;;;22.13;70.69;93203.09;5038432;28;20181;-75
2023/09/25 08:09:19;;;;;;;22.30;16.55;;;;;;;22.35;69.93;93201.06;5052916;28;20315;-74
2023/09/25 08:11:45;;;;;;;21.92;17.20;;;;;;;22.20;70.20;93195.34;5046535;28;20259;-74
2023/09/25 08:14:10;;;;;;;18.25;16.38;;;;;;;22.38;69.84;93201.19;5034908;28;20232;-75
2023/09/25 08:16:35;;;;;;;19.63;15.60;;;;;;;22.76;68.21;93198.88;5047776;28;20227;-74
2023/09/25 08:19:01;;;;;;;18.98;16.25;;;;;;;22.67;68.49;93192.91;5031321;28;20212;-74
2023/09/25 08:21:26;;;;;;;23.70;17.60;;;;;;;22.37;69.74;93196.19;5047888;28;20191;-75
2023/09/25 08:23:51;;;;;;;17.98;16.15;;;;;;;22.54;68.18;93202.03;5044887;28;20227;-74
2023/09/25 08:26:17;;;;;;;16.55;14.95;;;;;;;22.36;67.84;93197.28;5046672;28;20214;-76
2023/09/25 08:28:42;;;;;;;17.42;15.50;;;;;;;22.30;67.67;93194.09;5033493;28;20233;-75
2023/09/25 08:31:08;;;;;;;16.20;14.85;;;;;;;22.82;66.88;93197.50;5034594;28;20251;-75
2023/09/25 08:33:33;;;;;;;15.93;14.43;;;;;;;22.82;64.16;93186.09;5036734;28;20224;-75
2023/09/25 08:35:58;;;;;;;15.05;13.65;;;;;;;23.17;64.89;93198.47;5037071;28;20188;-75
2023/09/25 08:38:24;;;;;;;15.20;13.80;;;;;;;23.03;64.57;93198.09;5043543;28;20261;-86
2023/09/25 08:40:49;;;;;;;15.00;13.60;;;;;;;22.90;64.01;93193.91;5048185;28;20185;-85
2023/09/25 08:43:15;;;;;;;14.25;13.05;;;;;;;23.09;62.17;93201.28;5043360;28;20231;-86
2023/09/25 08:45:44;;;;;;;15.55;13.90;;;;;;;22.59;64.75;93204.47;5050818;28;20193;-86
2023/09/25 08:48:10;;;;;;;14.13;12.93;;;;;;;22.63;64.29;93208.00;5036787;28;20255;-86
2023/09/25 08:50:37;;;;;;;14.02;12.27;;;;;;;22.65;64.17;93191.69;5048468;28;20180;-86
2023/09/25 08:53:03;;;;;;;14.60;13.30;;;;;;;22.85;62.09;93204.06;5047330;28;20233;-91
2023/09/25 08:55:29;;;;;;;13.68;12.48;;;;;;;23.07;61.92;93203.50;5048604;28;20185;-88
2023/09/25 08:57:55;;;;;;;14.20;12.88;;;;;;;23.11;61.99;93199.84;5035885;28;20229;-86
2023/09/25 09:00:20;;;;;;;13.75;12.55;;;;;;;22.95;60.79;93199.00;5035611;28;20208;-87
2023/09/25 09:02:46;;;;;;;12.93;11.73;;;;;;;23.05;60.50;93200.41;5035747;28;20189;-88
2023/09/25 09:05:19;;;;;;;12.48;11.43;;;;;;;22.76;61.54;93198.06;5039363;28;20205;-86
2023/09/25 09:08:05;;;;;;;14.02;12.25;;;;;;;22.43;63.39;93203.59;5039446;28;20193;-88
2023/09/25 09:10:39;;;;;;;12.05;10.98;;;;;;;22.35;64.58;93193.09;5038786;28;20191;-82
2023/09/25 09:13:14;;;;;;;12.73;11.63;;;;;;;22.34;63.40;93200.28;5043450;28;20230;-80
2023/09/25 09:15:40;;;;;;;12.27;11.18;;;;;;;22.68;63.00;93185.72;5034224;28;20199;-77
2023/09/25 09:18:19;;;;;;;13.40;11.52;;;;;;;22.74;63.25;93203.00;5040984;28;20230;-75
2023/09/25 09:20:44;;;;;;;12.80;11.68;;;;;;;22.79;62.07;93197.41;5041079;28;20172;-76
2023/09/25 09:23:10;;;;;;;12.95;11.75;;;;;;;22.88;63.05;93212.13;5041325;28;20246;-75
2023/09/25 09:25:35;;;;;;;13.05;11.63;;;;;;;22.81;62.07;93193.31;5039373;28;20191;-76
2023/09/25 09:28:04;;;;;;;12.30;11.40;;;;;;;22.98;61.25;93202.88;5045233;28;20229;-76
2023/09/25 09:30:30;;;;;;;13.55;12.55;;;;;;;23.18;60.16;93208.00;5043981;28;20194;-75
2023/09/25 09:32:57;;;;;;;12.80;11.77;;;;;;;22.84;62.54;93205.94;5042976;28;20244;-75
2023/09/25 09:35:24;;;;;;;12.48;11.57;;;;;;;23.16;61.35;93202.22;5046786;28;20208;-76
2023/09/25 09:37:54;;;;;;;12.63;11.40;;;;;;;23.12;61.98;93206.69;5046090;28;20240;-76
2023/09/25 09:40:25;;;;;;;12.10;11.00;;;;;;;23.46;61.06;93208.75;5036663;28;20183;-75
2023/09/25 09:42:52;;;;;;;11.07;10.10;;;;;;;23.26;60.53;93211.63;5040373;28;20254;-76
2023/09/25 09:45:18;;;;;;;12.15;11.00;;;;;;;23.43;59.97;93209.44;5038245;28;20261;-75
2023/09/25 09:47:46;;;;;;;12.18;11.15;;;;;;;23.48;61.02;93198.53;5046588;28;20191;-75
2023/09/25 09:50:13;;;;;;;14.60;11.88;;;;;;;24.05;57.87;93205.25;5034024;28;20189;-75
2023/09/25 09:52:39;;;;;;;12.35;11.20;;;;;;;23.92;57.77;93206.41;5038880;28;20197;-75
2023/09/25 09:55:06;;;;;;;10.52;9.73;;;;;;;23.75;57.09;93202.97;5041010;28;20232;-74
2023/09/25 09:57:32;;;;;;;11.73;10.68;;;;;;;23.54;59.15;93202.47;5042754;28;20220;-73
2023/09/25 09:59:57;;;;;;;11.88;10.98;;;;;;;23.67;58.34;93200.50;5050114;28;20218;-75
2023/09/25 10:02:26;;;;;;;11.90;10.90;;;;;;;23.42;58.89;93209.78;5046402;28;20193;-74
2023/09/25 10:04:52;;;;;;;11.35;10.55;;;;;;;23.77;58.03;93201.88;5045381;28;20206;-72
2023/09/25 10:07:18;;;;;;;12.95;11.82;;;;;;;23.52;60.73;93199.38;5049404;28;20651;-73
2023/09/25 10:09:57;;;;;;;12.13;10.95;;;;;;;23.56;59.13;93200.22;5036079;28;20212;-74
2023/09/25 10:12:48;;;;;;;12.27;11.38;;;;;;;23.60;58.83;93209.09;5044873;28;20250;-74
2023/09/25 10:15:25;;;;;;;12.10;11.05;;;;;;;23.84;58.22;93205.47;5039462;28;21054;-75
2023/09/25 10:17:52;;;;;;;11.82;10.77;;;;;;;23.59;57.70;93209.44;5037245;28;20248;-75
2023/09/25 10:20:33;;;;;;;14.18;11.95;;;;;;;23.77;57.99;93201.88;5040267;28;20235;-74
2023/09/25 10:23:10;;;;;;;13.13;11.90;;;;;;;23.77;57.95;93201.88;5036534;28;20232;-74
2023/09/25 10:25:52;;;;;;;12.60;11.68;;;;;;;23.76;59.35;93203.75;5044600;28;20247;-74
2023/09/25 10:28:27;;;;;;;11.57;10.77;;;;;;;24.01;56.89;93199.03;5041053;28;20242;-75
2023/09/25 10:30:59;;;;;;;11.27;10.45;;;;;;;24.33;55.76;93203.94;5038057;28;20192;-74
2023/09/25 10:33:29;;;;;;;11.15;10.18;;;;;;;24.09;56.70;93198.06;5046656;28;20228;-77
2023/09/25 10:36:00;;;;;;;11.77;10.63;;;;;;;24.15;56.03;93192.13;5036408;28;20193;-77
2023/09/25 10:38:28;;;;;;;11.20;10.43;;;;;;;24.33;55.49;93198.63;5044687;28;21032;-76
2023/09/25 10:41:00;;;;;;;11.98;10.77;;;;;;;23.67;57.82;93201.25;5039172;28;20242;-77
2023/09/25 10:43:26;;;;;;;10.63;9.63;;;;;;;23.93;55.21;93197.28;5055744;28;20224;-78
2023/09/25 10:45:54;;;;;;;11.77;10.98;;;;;;;23.55;58.56;93198.69;5042837;28;20248;-76
2023/09/25 10:48:20;;;;;;;12.40;11.00;;;;;;;23.53;57.32;93192.91;5043098;28;20232;-78
2023/09/25 10:50:46;;;;;;;11.48;10.40;;;;;;;23.68;56.54;93200.16;5039252;28;20192;-78
2023/09/25 10:53:13;;;;;;;11.18;9.77;;;;;;;23.70;57.68;93184.56;5034536;28;20229;-78
2023/09/25 10:55:40;;;;;;;11.15;10.18;;;;;;;23.29;58.91;93200.28;5041650;28;20193;-78
2023/09/25 10:58:07;;;;;;;12.25;11.00;;;;;;;23.26;59.15;93196.44;5040794;28;20221;-77
2023/09/25 11:00:34;;;;;;;11.05;10.00;;;;;;;23.89;57.24;93189.22;5043017;28;20219;-76
2023/09/25 11:03:01;;;;;;;11.80;10.98;;;;;;;23.91;58.95;93194.22;5049146;28;20251;-78
2023/09/25 11:05:28;;;;;;;10.88;10.10;;;;;;;23.52;59.14;93193.25;5036082;28;20188;-79
2023/09/25 11:07:53;;;;;;;12.40;11.20;;;;;;;23.77;58.04;93190.09;5049158;28;20254;-79
2023/09/25 11:10:19;;;;;;;11.02;10.13;;;;;;;24.12;56.22;93200.03;5040735;28;20320;-79
2023/09/25 11:12:47;;;;;;;12.18;10.98;;;;;;;24.15;55.90;93194.00;5041814;28;20295;-82
2023/09/25 11:15:17;;;;;;;9.98;9.25;;;;;;;24.44;54.57;93180.16;5045928;28;20224;-79